Time;durP1;ratioP1;P1;durP2;ratioP2;P2;SDS_P1;SDS_P2;PMS_P1;PMS_P2;Temp;Humidity;BMP_temperature;BMP_pressure;BME280_temperature;BME280_humidity;BME280_pressure;Samples;Min_cycle;Max_cycle;Signal;HPM_P1;HPM_P2
2020/12/18 00:02:48;;;;;;;42.93;25.70;;;;;;;4.00;73.73;99710.38;2261182;79;21097;-77
2020/12/18 00:05:53;;;;;;;40.23;25.10;;;;;;;4.00;73.76;99719.42;2264328;79;21518;-77
2020/12/18 00:08:54;;;;;;;42.58;25.55;;;;;;;3.96;73.77;99714.91;2260101;79;21153;-77
2020/12/18 00:11:55;;;;;;;42.57;26.60;;;;;;;3.93;73.70;99715.63;2260321;79;21106;-77
2020/12/18 00:14:56;;;;;;;39.20;25.17;;;;;;;3.98;73.82;99715.88;2259376;79;21102;-77
2020/12/18 00:17:57;;;;;;;46.83;28.73;;;;;;;4.03;73.67;99719.58;2260376;79;21244;-77
2020/12/18 00:20:58;;;;;;;43.20;26.00;;;;;;;4.04;73.71;99726.52;2259957;79;21121;-77
2020/12/18 00:23:59;;;;;;;45.60;27.33;;;;;;;3.97;73.78;99724.02;2260437;79;21149;-77
2020/12/18 00:27:03;;;;;;;44.18;26.95;;;;;;;3.96;73.79;99725.23;2260353;79;21252;-77
2020/12/18 00:30:04;;;;;;;40.90;25.90;;;;;;;3.95;73.76;99726.94;2259546;79;21420;-78
2020/12/18 00:33:06;;;;;;;45.20;25.80;;;;;;;3.98;73.78;99725.80;2260082;79;21086;-77
2020/12/18 00:36:07;;;;;;;35.80;24.17;;;;;;;4.00;73.72;99724.59;2259760;79;21118;-77
2020/12/18 00:39:08;;;;;;;125.77;73.13;;;;;;;4.04;73.66;99720.95;2259706;79;21114;-78
2020/12/18 00:42:09;;;;;;;58.20;34.33;;;;;;;4.08;73.74;99721.59;2260126;79;21113;-78
2020/12/18 00:45:10;;;;;;;39.97;25.90;;;;;;;4.12;73.57;99719.64;2259018;79;21165;-77
2020/12/18 00:48:12;;;;;;;40.60;26.13;;;;;;;4.17;73.56;99718.59;2258761;79;21086;-77
2020/12/18 00:51:13;;;;;;;39.27;23.63;;;;;;;4.17;73.43;99725.05;2260200;79;21118;-78
2020/12/18 00:54:14;;;;;;;35.93;23.70;;;;;;;4.13;73.36;99726.98;2260091;79;21394;-77
2020/12/18 00:57:15;;;;;;;38.03;24.50;;;;;;;4.14;73.33;99726.18;2260128;79;21402;-77
2020/12/18 01:00:16;;;;;;;44.00;26.63;;;;;;;4.16;73.37;99723.27;2259030;79;21126;-78
2020/12/18 01:03:17;;;;;;;42.03;27.37;;;;;;;4.18;73.40;99725.94;2259935;79;21200;-77
2020/12/18 01:06:18;;;;;;;39.10;24.77;;;;;;;4.20;73.38;99726.50;2259532;79;21130;-77
2020/12/18 01:09:20;;;;;;;40.67;25.77;;;;;;;4.17;73.30;99730.21;2259207;79;21094;-78
2020/12/18 01:12:21;;;;;;;40.60;24.73;;;;;;;4.19;73.36;99728.59;2259593;79;21122;-77
2020/12/18 01:15:22;;;;;;;50.60;30.07;;;;;;;4.19;73.19;99727.30;2259334;79;21244;-77
2020/12/18 01:18:23;;;;;;;39.73;23.80;;;;;;;4.14;73.13;99724.89;2258690;79;21125;-77
2020/12/18 01:21:24;;;;;;;36.07;22.83;;;;;;;4.15;73.16;99730.54;2258707;79;21130;-77
2020/12/18 01:24:25;;;;;;;34.73;23.43;;;;;;;4.20;73.19;99729.08;2259244;79;21264;-77
2020/12/18 01:27:26;;;;;;;37.50;23.60;;;;;;;4.22;73.06;99728.75;2259848;79;21387;-77
2020/12/18 01:30:27;;;;;;;41.67;25.13;;;;;;;4.25;73.12;99731.89;2260426;79;21121;-77
2020/12/18 01:33:29;;;;;;;40.27;25.33;;;;;;;4.27;73.08;99724.70;2260097;79;21118;-77
2020/12/18 01:36:30;;;;;;;36.13;23.70;;;;;;;4.26;73.09;99724.22;2260115;79;21113;-77
2020/12/18 01:39:31;;;;;;;43.07;24.23;;;;;;;4.22;72.94;99721.00;2259813;79;21384;-77
2020/12/18 01:42:32;;;;;;;40.13;24.53;;;;;;;4.19;72.97;99719.95;2260274;79;21129;-78
2020/12/18 01:45:33;;;;;;;37.50;24.73;;;;;;;4.19;72.97;99728.59;2258761;79;21161;-77
2020/12/18 01:48:34;;;;;;;37.83;25.40;;;;;;;4.19;72.93;99729.89;2259039;79;21126;-77
2020/12/18 01:51:35;;;;;;;37.10;24.97;;;;;;;4.20;73.04;99730.37;2259640;79;21098;-77
2020/12/18 01:54:36;;;;;;;41.77;25.37;;;;;;;4.22;73.00;99727.86;2260231;79;21113;-77
2020/12/18 01:57:38;;;;;;;39.13;23.40;;;;;;;4.24;72.94;99732.30;2260276;79;21074;-77
2020/12/18 02:00:39;;;;;;;42.83;26.07;;;;;;;4.20;72.84;99735.53;2260349;79;21122;-77
2020/12/18 02:03:40;;;;;;;41.90;24.70;;;;;;;4.18;73.00;99726.82;2260063;79;21161;-77
2020/12/18 02:06:42;;;;;;;40.27;24.03;;;;;;;4.19;72.98;99731.18;2260944;79;21098;-78
2020/12/18 02:09:43;;;;;;;38.13;24.33;;;;;;;4.16;72.95;99731.91;2267824;79;21094;-78
2020/12/18 02:12:45;;;;;;;38.47;25.20;;;;;;;4.15;73.03;99739.59;2267776;79;21118;-79
2020/12/18 02:15:46;;;;;;;36.17;23.60;;;;;;;4.10;73.09;99729.42;2267738;79;21070;-78
2020/12/18 02:18:49;;;;;;;43.77;26.27;;;;;;;4.10;73.18;99729.02;2268617;79;21113;-78
2020/12/18 02:21:50;;;;;;;40.83;26.00;;;;;;;4.07;73.37;99737.02;2268632;79;21121;-79
2020/12/18 02:24:52;;;;;;;36.27;22.80;;;;;;;4.08;73.40;99738.78;2267723;79;21145;-78
2020/12/18 02:27:53;;;;;;;37.77;23.17;;;;;;;4.04;73.41;99748.48;2268114;79;21097;-78
2020/12/18 02:30:54;;;;;;;39.07;25.50;;;;;;;4.03;73.56;99745.41;2267740;79;21122;-78
2020/12/18 02:33:55;;;;;;;40.97;25.10;;;;;;;4.05;73.69;99753.73;2267568;79;21070;-78
2020/12/18 02:36:56;;;;;;;41.73;25.53;;;;;;;4.05;73.89;99757.60;2267916;79;21106;-79
2020/12/18 02:39:57;;;;;;;43.93;25.30;;;;;;;4.03;73.98;99760.51;2267567;79;21113;-79
2020/12/18 02:42:58;;;;;;;44.37;25.60;;;;;;;4.04;74.38;99755.83;2267359;79;21125;-78
2020/12/18 02:45:59;;;;;;;43.53;25.90;;;;;;;4.02;74.38;99761.72;2267650;79;21252;-79
2020/12/18 02:49:03;;;;;;;48.17;29.23;;;;;;;3.99;74.57;99761.56;2267745;79;21110;-78
2020/12/18 02:52:04;;;;;;;41.50;25.83;;;;;;;3.93;74.72;99762.13;2267280;79;21109;-77
2020/12/18 02:55:07;;;;;;;42.30;25.23;;;;;;;3.93;74.95;99761.24;2267484;79;21110;-77
2020/12/18 02:58:08;;;;;;;45.47;27.40;;;;;;;3.92;75.43;99755.19;2265784;79;21102;-77
2020/12/18 03:01:12;;;;;;;42.87;25.63;;;;;;;3.91;75.23;99758.98;2265040;79;21118;-77
2020/12/18 03:04:13;;;;;;;51.80;28.30;;;;;;;3.91;75.33;99765.44;2265918;79;21161;-77
2020/12/18 03:07:14;;;;;;;54.70;26.47;;;;;;;3.89;75.64;99768.34;2265950;79;21462;-76
2020/12/18 03:10:15;;;;;;;46.03;25.57;;;;;;;3.90;75.65;99764.95;2266981;79;21180;-78
2020/12/18 03:13:16;;;;;;;45.40;27.17;;;;;;;3.95;75.79;99765.68;2266936;79;21074;-77
2020/12/18 03:16:18;;;;;;;51.00;30.83;;;;;;;3.95;75.80;99763.50;2267100;79;21113;-77
2020/12/18 03:19:18;;;;;;;56.80;29.50;;;;;;;3.94;75.81;99767.78;2267165;79;21110;-78
2020/12/18 03:22:21;;;;;;;48.60;30.07;;;;;;;3.97;75.96;99765.77;2267277;79;21137;-79
2020/12/18 03:25:22;;;;;;;50.77;29.00;;;;;;;3.99;76.06;99761.16;2267593;79;21148;-79
2020/12/18 03:28:23;;;;;;;49.10;29.10;;;;;;;4.01;76.04;99758.66;2267338;79;21105;-77
2020/12/18 03:31:24;;;;;;;47.33;27.73;;;;;;;4.07;76.04;99756.39;2267542;79;21105;-77
2020/12/18 03:34:26;;;;;;;56.30;30.53;;;;;;;4.11;75.96;99761.80;2266567;79;21113;-77
2020/12/18 03:37:27;;;;;;;53.77;30.17;;;;;;;4.13;76.05;99763.16;2267315;79;21098;-78
2020/12/18 03:40:28;;;;;;;59.93;34.23;;;;;;;4.14;75.92;99767.13;2266833;79;21090;-77
2020/12/18 03:43:29;;;;;;;54.70;31.37;;;;;;;4.15;75.99;99769.30;2266162;79;21161;-76
2020/12/18 03:46:30;;;;;;;53.37;29.97;;;;;;;4.19;76.03;99762.59;2266847;78;21401;-78
2020/12/18 03:49:31;;;;;;;53.03;30.93;;;;;;;4.22;76.08;99762.34;2266751;79;21117;-78
2020/12/18 03:52:32;;;;;;;53.63;30.50;;;;;;;4.24;75.97;99765.01;2267633;79;21375;-78
2020/12/18 03:55:33;;;;;;;51.27;30.53;;;;;;;4.23;75.94;99757.66;2267629;79;21086;-78
2020/12/18 03:58:35;;;;;;;59.10;33.00;;;;;;;4.18;76.02;99759.13;2267046;79;21118;-78
2020/12/18 04:01:36;;;;;;;53.20;30.13;;;;;;;4.14;76.15;99769.70;2266583;79;21114;-77
2020/12/18 04:04:37;;;;;;;63.70;33.13;;;;;;;4.10;76.65;99773.34;2267456;79;21093;-78
2020/12/18 04:07:38;;;;;;;58.33;32.53;;;;;;;3.98;76.71;99776.58;2265185;79;21161;-78
2020/12/18 04:10:39;;;;;;;63.57;34.70;;;;;;;3.92;76.98;99772.38;2259496;79;21105;-78
2020/12/18 04:13:40;;;;;;;66.03;37.17;;;;;;;3.92;77.08;99771.98;2259804;79;21513;-79
2020/12/18 04:16:41;;;;;;;67.57;38.10;;;;;;;3.95;77.25;99781.18;2259358;79;21145;-78
2020/12/18 04:19:42;;;;;;;66.77;35.67;;;;;;;3.98;77.32;99783.03;2259096;79;21137;-77
2020/12/18 04:22:43;;;;;;;67.80;34.43;;;;;;;4.01;77.53;99773.75;2258715;79;21929;-77
2020/12/18 04:25:44;;;;;;;69.47;37.00;;;;;;;4.05;77.49;99773.51;2259308;79;21617;-78
2020/12/18 04:28:46;;;;;;;84.07;41.83;;;;;;;4.06;77.70;99777.86;2259167;79;21074;-78
2020/12/18 04:31:47;;;;;;;73.47;39.90;;;;;;;4.12;77.59;99786.83;2258689;79;21503;-78
2020/12/18 04:34:48;;;;;;;83.07;40.77;;;;;;;4.19;77.83;99787.14;2257494;79;21094;-77
2020/12/18 04:37:49;;;;;;;66.97;35.57;;;;;;;4.15;77.68;99792.55;2256872;79;21260;-77
2020/12/18 04:40:50;;;;;;;74.70;39.20;;;;;;;4.11;77.79;99787.63;2257266;79;21078;-77
2020/12/18 04:43:52;;;;;;;65.37;36.80;;;;;;;4.08;77.83;99787.47;2256583;79;21273;-77
2020/12/18 04:46:53;;;;;;;78.70;39.60;;;;;;;4.12;78.16;99788.52;2255176;79;21241;-77
2020/12/18 04:49:54;;;;;;;71.97;41.67;;;;;;;4.11;77.89;99790.22;2255770;79;21236;-77
2020/12/18 04:52:55;;;;;;;60.83;32.07;;;;;;;4.10;77.97;99792.72;2254545;79;21106;-77
2020/12/18 04:55:56;;;;;;;71.87;35.47;;;;;;;4.10;78.32;99800.06;2254633;79;21082;-76
2020/12/18 04:58:57;;;;;;;68.83;34.43;;;;;;;4.05;78.42;99802.81;2254623;79;21240;-77
2020/12/18 05:01:58;;;;;;;66.90;38.10;;;;;;;4.04;78.21;99796.28;2253901;79;21255;-77
2020/12/18 05:05:00;;;;;;;82.03;40.63;;;;;;;4.10;78.25;99799.18;2253949;79;21153;-77
2020/12/18 05:08:01;;;;;;;48.60;27.43;;;;;;;4.15;78.21;99799.02;2254545;79;21272;-78
2020/12/18 05:11:02;;;;;;;66.93;36.50;;;;;;;4.13;78.61;99798.05;2254766;79;21354;-77
2020/12/18 05:14:03;;;;;;;62.13;32.30;;;;;;;4.07;78.27;99801.20;2253623;79;21626;-77
2020/12/18 05:17:04;;;;;;;67.93;36.30;;;;;;;4.10;78.51;99806.94;2253784;79;21244;-77
2020/12/18 05:20:05;;;;;;;62.00;34.03;;;;;;;4.05;78.80;99810.97;2253211;79;21992;-77
2020/12/18 05:23:06;;;;;;;66.87;36.03;;;;;;;4.07;78.53;99812.83;2253895;79;21284;-78
2020/12/18 05:26:07;;;;;;;73.00;36.03;;;;;;;4.15;78.56;99815.41;2255063;79;21275;-77
2020/12/18 05:29:08;;;;;;;64.37;35.30;;;;;;;4.20;78.46;99817.34;2255716;79;21244;-77
2020/12/18 05:32:09;;;;;;;62.73;36.47;;;;;;;4.25;78.40;99824.53;2255608;79;21240;-77
2020/12/18 05:35:11;;;;;;;69.13;38.23;;;;;;;4.29;78.28;99822.59;2256168;79;21158;-77
2020/12/18 05:38:12;;;;;;;69.93;37.70;;;;;;;4.31;78.19;99818.79;2256317;79;21244;-77
2020/12/18 05:41:13;;;;;;;57.27;28.77;;;;;;;4.36;78.21;99819.95;2255724;79;21145;-78
2020/12/18 05:44:14;;;;;;;50.87;28.70;;;;;;;4.33;78.20;99814.59;2255326;79;21292;-77
2020/12/18 05:47:15;;;;;;;60.63;32.00;;;;;;;4.27;78.28;99825.50;2255230;79;21144;-77
2020/12/18 05:50:16;;;;;;;67.63;36.07;;;;;;;4.28;78.17;99823.40;2255680;79;21562;-77
2020/12/18 05:53:17;;;;;;;69.30;35.17;;;;;;;4.35;78.22;99819.06;2255296;79;21252;-77
2020/12/18 05:56:18;;;;;;;61.37;34.57;;;;;;;4.40;78.16;99822.77;2254762;79;21121;-77
2020/12/18 05:59:19;;;;;;;57.20;32.77;;;;;;;4.38;78.11;99821.80;2254981;79;21238;-79
2020/12/18 06:02:20;;;;;;;55.37;32.57;;;;;;;4.33;78.17;99824.52;2253777;79;21299;-77
2020/12/18 06:05:21;;;;;;;50.67;29.43;;;;;;;4.38;78.23;99828.27;2254805;79;21312;-77
2020/12/18 06:08:22;;;;;;;55.37;32.90;;;;;;;4.41;78.20;99832.30;2253953;79;21260;-77
2020/12/18 06:11:24;;;;;;;63.63;36.07;;;;;;;4.39;78.12;99831.34;2254149;79;21248;-76
2020/12/18 06:14:25;;;;;;;62.73;36.03;;;;;;;4.36;78.31;99842.81;2255797;79;21141;-78
2020/12/18 06:17:26;;;;;;;55.33;33.27;;;;;;;4.31;78.36;99842.94;2255070;79;21531;-78
2020/12/18 06:20:27;;;;;;;58.77;33.47;;;;;;;4.30;78.57;99851.91;2254874;79;21614;-78
2020/12/18 06:23:28;;;;;;;61.00;34.53;;;;;;;4.28;78.63;99855.70;2253975;79;21188;-78
2020/12/18 06:26:29;;;;;;;58.27;33.87;;;;;;;4.28;78.52;99856.11;2254886;79;21581;-79
2020/12/18 06:29:30;;;;;;;68.60;38.40;;;;;;;4.23;78.60;99858.45;2254019;79;21248;-78
2020/12/18 06:32:31;;;;;;;52.73;31.63;;;;;;;4.23;78.72;99857.16;2254862;79;21145;-78
2020/12/18 06:35:32;;;;;;;60.07;31.80;;;;;;;4.24;78.94;99857.64;2255298;79;22043;-78
2020/12/18 06:38:33;;;;;;;57.47;33.97;;;;;;;4.21;79.13;99862.65;2256490;79;21257;-80
2020/12/18 06:41:34;;;;;;;60.40;33.20;;;;;;;4.23;78.98;99868.79;2257043;79;21224;-78
2020/12/18 06:44:35;;;;;;;62.73;33.63;;;;;;;4.28;79.12;99869.92;2254373;79;21296;-78
2020/12/18 06:47:37;;;;;;;57.63;32.20;;;;;;;4.30;78.83;99876.46;2254929;79;21232;-79
2020/12/18 06:50:38;;;;;;;48.43;29.10;;;;;;;4.32;78.85;99878.32;2257680;79;21216;-78
2020/12/18 06:53:39;;;;;;;59.27;29.93;;;;;;;4.29;79.06;99883.73;2257851;79;21110;-78
2020/12/18 06:56:40;;;;;;;56.60;31.93;;;;;;;4.27;78.82;99882.36;2256649;79;21098;-79
2020/12/18 06:59:42;;;;;;;61.53;33.40;;;;;;;4.27;78.89;99890.11;2257264;79;21542;-77
2020/12/18 07:02:43;;;;;;;57.67;32.37;;;;;;;4.27;78.93;99891.41;2257783;79;21104;-81
2020/12/18 07:05:44;;;;;;;54.13;30.37;;;;;;;4.23;78.98;99887.28;2257565;79;21268;-78
2020/12/18 07:08:45;;;;;;;61.70;31.70;;;;;;;4.25;79.24;99894.31;2257470;79;21110;-80
2020/12/18 07:11:46;;;;;;;55.93;30.20;;;;;;;4.26;79.06;99897.78;2257366;79;21237;-79
2020/12/18 07:14:48;;;;;;;61.20;34.53;;;;;;;4.29;79.14;99897.55;2258400;79;21213;-80
2020/12/18 07:17:49;;;;;;;61.60;34.17;;;;;;;4.34;79.08;99897.42;2258349;79;21785;-79
2020/12/18 07:20:50;;;;;;;59.07;32.97;;;;;;;4.36;78.96;99898.39;2257694;79;21697;-78
2020/12/18 07:23:52;;;;;;;53.77;30.83;;;;;;;4.39;78.87;99903.72;2258078;79;21291;-81
2020/12/18 07:26:53;;;;;;;58.00;31.67;;;;;;;4.41;78.75;99902.11;2257926;79;21561;-80
2020/12/18 07:29:54;;;;;;;54.17;32.83;;;;;;;4.45;78.71;99909.62;2258430;79;21506;-79
2020/12/18 07:32:55;;;;;;;56.67;32.40;;;;;;;4.47;78.69;99906.70;2259409;79;21094;-80
2020/12/18 07:35:56;;;;;;;61.17;35.60;;;;;;;4.46;78.63;99906.23;2258617;79;21854;-79
2020/12/18 07:38:58;;;;;;;61.50;32.93;;;;;;;4.45;78.56;99908.33;2257929;79;21217;-81
2020/12/18 07:41:59;;;;;;;57.20;32.40;;;;;;;4.53;78.61;99915.19;2258323;79;21232;-79
2020/12/18 07:45:00;;;;;;;50.73;32.30;;;;;;;4.52;78.46;99914.70;2257203;79;21859;-78
2020/12/18 07:48:01;;;;;;;57.30;34.77;;;;;;;4.56;78.45;99921.41;2257365;79;21268;-78
2020/12/18 07:51:02;;;;;;;55.53;32.73;;;;;;;4.59;78.44;99921.58;2255138;79;21264;-78
2020/12/18 07:54:03;;;;;;;55.90;31.20;;;;;;;4.68;78.50;99921.16;2253240;79;21117;-79
2020/12/18 07:57:04;;;;;;;46.67;29.40;;;;;;;4.68;78.36;99918.58;2254374;79;21291;-79
2020/12/18 08:00:05;;;;;;;49.33;30.43;;;;;;;4.70;78.31;99924.31;2255439;79;22120;-79
2020/12/18 08:03:06;;;;;;;45.10;26.63;;;;;;;4.79;78.12;99935.55;2254599;79;21264;-79
2020/12/18 08:06:07;;;;;;;52.07;30.90;;;;;;;4.80;78.08;99929.16;2255265;79;21299;-78
2020/12/18 08:09:08;;;;;;;49.87;30.13;;;;;;;4.80;78.12;99932.14;2258221;79;21117;-79
2020/12/18 08:12:10;;;;;;;50.63;30.90;;;;;;;4.80;78.16;99938.20;2261599;79;21566;-78
2020/12/18 08:15:11;;;;;;;51.77;30.93;;;;;;;4.83;78.08;99937.88;2261619;79;21235;-80
2020/12/18 08:18:12;;;;;;;44.33;27.53;;;;;;;4.89;78.06;99940.37;2261234;79;21252;-80
2020/12/18 08:21:13;;;;;;;53.20;30.10;;;;;;;4.97;77.94;99939.48;2262368;79;21109;-78
2020/12/18 08:24:14;;;;;;;48.33;30.30;;;;;;;4.99;77.88;99945.22;2262822;79;21247;-78
2020/12/18 08:27:17;;;;;;;55.53;31.57;;;;;;;4.95;77.80;99947.57;2262726;79;22036;-81
2020/12/18 08:30:19;;;;;;;58.57;34.30;;;;;;;4.95;77.76;99943.69;2266277;79;21395;-80
2020/12/18 08:33:20;;;;;;;55.73;34.07;;;;;;;5.02;77.84;99954.43;2264646;78;21721;-78
2020/12/18 08:36:23;;;;;;;60.00;35.97;;;;;;;5.12;77.62;99961.85;2262798;79;21275;-77
2020/12/18 08:39:24;;;;;;;58.07;34.50;;;;;;;5.12;77.54;99961.85;2263588;79;21109;-80
2020/12/18 08:42:25;;;;;;;57.20;35.63;;;;;;;5.20;77.61;99960.06;2263108;79;21236;-77
2020/12/18 08:45:26;;;;;;;55.83;33.20;;;;;;;5.34;77.63;99960.38;2261410;79;21486;-79
2020/12/18 08:48:29;;;;;;;41.13;26.30;;;;;;;5.48;77.12;99959.77;2263074;79;21125;-79
2020/12/18 08:51:30;;;;;;;46.73;28.80;;;;;;;5.57;76.94;99961.52;2262027;79;21256;-78
2020/12/18 08:54:31;;;;;;;48.77;31.43;;;;;;;5.64;76.96;99961.02;2262854;79;21244;-79
2020/12/18 08:57:32;;;;;;;45.83;28.50;;;;;;;5.67;76.60;99960.75;2262922;79;21240;-79
2020/12/18 09:00:34;;;;;;;50.63;31.17;;;;;;;5.64;76.37;99964.48;2263642;79;21310;-80
2020/12/18 09:03:35;;;;;;;47.37;29.10;;;;;;;5.62;76.46;99962.63;2262917;79;21863;-78
2020/12/18 09:06:37;;;;;;;51.50;32.73;;;;;;;5.73;76.58;99966.23;2260971;79;21256;-79
2020/12/18 09:09:38;;;;;;;45.67;29.97;;;;;;;5.81;76.20;99966.60;2258520;79;21168;-79
2020/12/18 09:12:39;;;;;;;47.70;30.07;;;;;;;5.84;75.85;99976.23;2253341;79;21326;-78
2020/12/18 09:15:40;;;;;;;45.17;30.07;;;;;;;5.80;76.03;99975.59;2254223;79;21146;-79
2020/12/18 09:18:41;;;;;;;49.90;31.33;;;;;;;5.76;75.88;99970.27;2254493;79;21117;-79
2020/12/18 09:21:42;;;;;;;52.40;32.37;;;;;;;5.83;75.86;99975.75;2255111;79;21232;-77
2020/12/18 09:24:43;;;;;;;46.17;30.43;;;;;;;5.87;75.93;99981.55;2254841;79;21506;-78
2020/12/18 09:27:44;;;;;;;43.37;26.57;;;;;;;5.97;75.75;99973.03;2254827;79;22062;-78
2020/12/18 09:30:48;;;;;;;50.60;30.53;;;;;;;6.00;75.39;99967.11;2253949;79;21239;-77
2020/12/18 09:33:50;;;;;;;51.63;32.63;;;;;;;5.95;75.49;99975.07;2255001;79;21260;-79
2020/12/18 09:36:51;;;;;;;52.97;31.10;;;;;;;5.96;75.18;99971.66;2256650;79;21302;-78
2020/12/18 09:39:52;;;;;;;48.63;30.37;;;;;;;5.96;75.56;99972.97;2255408;79;21936;-78
2020/12/18 09:42:53;;;;;;;50.60;30.13;;;;;;;6.00;75.67;99969.70;2255094;79;21240;-79
2020/12/18 09:45:54;;;;;;;48.30;29.83;;;;;;;6.05;75.46;99971.70;2254340;79;21295;-79
2020/12/18 09:48:55;;;;;;;44.23;27.30;;;;;;;6.12;75.54;99973.31;2255603;79;21454;-78
2020/12/18 09:51:56;;;;;;;43.10;27.63;;;;;;;6.22;75.29;99963.45;2256199;79;21260;-79
2020/12/18 09:54:57;;;;;;;46.57;29.63;;;;;;;6.22;74.68;99960.86;2254804;79;21534;-79
2020/12/18 09:57:58;;;;;;;47.47;30.20;;;;;;;6.18;74.91;99970.61;2254113;79;21252;-78
2020/12/18 10:01:00;;;;;;;45.97;29.10;;;;;;;6.15;74.88;99969.16;2254076;79;21287;-77
2020/12/18 10:04:01;;;;;;;49.17;30.77;;;;;;;6.17;74.97;99970.53;2254699;79;21280;-77
2020/12/18 10:07:02;;;;;;;47.37;30.10;;;;;;;6.21;74.75;99965.56;2256485;79;21559;-80
2020/12/18 10:10:03;;;;;;;53.77;32.40;;;;;;;6.34;74.74;99965.31;2258844;79;21283;-79
2020/12/18 10:13:04;;;;;;;48.27;31.03;;;;;;;6.34;74.74;99965.31;2262635;79;21346;-77
2020/12/18 10:16:05;;;;;;;44.37;29.17;;;;;;;6.48;74.16;99972.84;2262904;79;21994;-79
2020/12/18 10:19:06;;;;;;;51.23;31.93;;;;;;;6.48;74.16;99972.84;2262405;79;21255;-78
2020/12/18 10:22:07;;;;;;;47.67;30.60;;;;;;;6.56;74.60;99972.78;2262736;79;21279;-77
2020/12/18 10:25:09;;;;;;;48.23;28.50;;;;;;;6.64;74.27;99966.23;2262930;79;22216;-79
2020/12/18 10:28:10;;;;;;;45.43;28.13;;;;;;;6.59;73.78;99965.14;2262415;79;21241;-78
2020/12/18 10:31:11;;;;;;;45.43;28.83;;;;;;;6.61;73.66;99966.09;2261455;79;21470;-79
2020/12/18 10:34:12;;;;;;;48.83;31.87;;;;;;;6.66;73.95;99971.97;2262494;79;21126;-79
2020/12/18 10:37:13;;;;;;;48.03;30.97;;;;;;;6.74;74.11;99968.42;2261815;79;21528;-79
2020/12/18 10:40:14;;;;;;;45.63;29.33;;;;;;;6.84;73.96;99971.91;2262680;79;21086;-79
2020/12/18 10:43:17;;;;;;;48.23;29.87;;;;;;;6.96;73.37;99972.48;2261186;79;21280;-77
2020/12/18 10:46:18;;;;;;;50.47;30.77;;;;;;;6.96;73.23;99969.88;2261447;79;21292;-77
2020/12/18 10:49:19;;;;;;;50.67;30.40;;;;;;;7.03;73.27;99974.52;2260355;79;21248;-79
2020/12/18 10:52:21;;;;;;;45.37;28.90;;;;;;;7.11;72.91;99973.97;2261750;79;21264;-78
2020/12/18 10:55:23;;;;;;;43.17;27.20;;;;;;;7.07;72.67;99971.65;2263133;79;21585;-79
2020/12/18 10:58:26;;;;;;;43.83;28.43;;;;;;;7.09;72.19;99979.50;2262280;79;21264;-79
2020/12/18 11:01:27;;;;;;;51.57;32.83;;;;;;;7.09;72.44;99971.72;2262123;79;21256;-79
2020/12/18 11:04:28;;;;;;;45.83;30.40;;;;;;;7.07;72.32;99975.95;2261211;79;21271;-78
2020/12/18 11:07:30;;;;;;;47.07;31.53;;;;;;;7.08;72.74;99974.72;2260304;79;21077;-79
2020/12/18 11:10:31;;;;;;;38.87;25.40;;;;;;;7.11;72.84;99975.27;2258466;79;21581;-78
2020/12/18 11:13:32;;;;;;;49.80;29.17;;;;;;;7.10;72.40;99972.20;2256705;79;21660;-80
2020/12/18 11:16:33;;;;;;;39.67;25.97;;;;;;;7.14;72.53;99972.39;2255605;79;21360;-79
2020/12/18 11:19:35;;;;;;;58.33;32.43;;;;;;;7.18;72.41;99970.81;2255342;79;21285;-78
2020/12/18 11:22:36;;;;;;;50.43;30.90;;;;;;;7.18;72.34;99978.19;2254916;79;21126;-79
2020/12/18 11:25:37;;;;;;;45.17;30.30;;;;;;;7.23;72.06;99969.30;2254423;79;21666;-78
2020/12/18 11:28:38;;;;;;;49.13;30.03;;;;;;;7.19;72.22;99968.28;2254958;79;21267;-80
2020/12/18 11:31:39;;;;;;;51.43;29.73;;;;;;;7.29;72.75;99973.05;2257589;79;21603;-81
2020/12/18 11:34:40;;;;;;;52.77;30.63;;;;;;;7.37;72.26;99968.59;2254454;79;21164;-80
2020/12/18 11:37:41;;;;;;;53.70;32.27;;;;;;;7.43;71.93;99975.34;2256686;79;21188;-80
2020/12/18 11:40:42;;;;;;;52.23;30.10;;;;;;;7.47;72.04;99978.13;2256682;79;21848;-78
2020/12/18 11:43:43;;;;;;;50.67;31.67;;;;;;;7.50;71.80;99970.87;2255384;79;21594;-80
2020/12/18 11:46:44;;;;;;;56.43;33.60;;;;;;;7.50;71.80;99970.87;2255323;79;21268;-78
2020/12/18 11:49:46;;;;;;;47.07;30.00;;;;;;;7.54;71.82;99968.47;2254741;79;21581;-79
2020/12/18 11:52:47;;;;;;;42.30;27.67;;;;;;;7.52;71.56;99979.21;2254347;79;21256;-79
2020/12/18 11:55:48;;;;;;;45.77;28.70;;;;;;;7.48;71.38;99968.22;2254417;79;21284;-80
2020/12/18 11:58:49;;;;;;;42.00;28.03;;;;;;;7.48;71.38;99968.22;2256825;79;21098;-80
2020/12/18 12:01:50;;;;;;;47.90;28.80;;;;;;;7.52;71.58;99966.22;2257056;79;21282;-80
2020/12/18 12:04:51;;;;;;;48.50;30.50;;;;;;;7.58;71.47;99963.87;2256481;79;21844;-80
2020/12/18 12:07:53;;;;;;;50.53;30.87;;;;;;;7.55;71.35;99961.16;2256164;79;21231;-79
2020/12/18 12:10:54;;;;;;;42.87;26.57;;;;;;;7.58;71.51;99961.28;2259360;79;21264;-78
2020/12/18 12:13:55;;;;;;;44.77;29.30;;;;;;;7.62;71.11;99959.70;2261470;79;21259;-79
2020/12/18 12:16:56;;;;;;;45.47;29.03;;;;;;;7.63;71.17;99951.08;2262748;79;21276;-80
2020/12/18 12:19:58;;;;;;;49.77;32.57;;;;;;;7.67;71.15;99960.77;2263892;79;21232;-79
2020/12/18 12:22:59;;;;;;;43.20;29.97;;;;;;;7.72;71.19;99957.06;2262751;79;21236;-80
2020/12/18 12:26:00;;;;;;;40.50;26.53;;;;;;;7.78;71.11;99961.20;2262296;79;21307;-80
2020/12/18 12:29:01;;;;;;;42.90;27.20;;;;;;;7.83;71.00;99954.52;2264254;79;21263;-79
2020/12/18 12:32:02;;;;;;;52.73;32.07;;;;;;;7.79;70.14;99953.88;2264268;79;21311;-80
2020/12/18 12:35:03;;;;;;;52.17;30.13;;;;;;;7.71;70.83;99955.28;2264141;79;21114;-77
2020/12/18 12:38:06;;;;;;;46.80;29.03;;;;;;;7.68;70.88;99954.34;2261988;79;21276;-80
2020/12/18 12:41:07;;;;;;;52.10;32.07;;;;;;;7.68;70.88;99954.34;2261327;79;21599;-77
2020/12/18 12:44:08;;;;;;;51.00;32.40;;;;;;;7.65;70.89;99952.02;2261077;79;21264;-76
2020/12/18 12:47:09;;;;;;;48.30;31.77;;;;;;;7.64;70.91;99949.84;2262021;79;21248;-78
2020/12/18 12:50:10;;;;;;;44.83;28.90;;;;;;;7.70;71.10;99944.00;2263692;79;21248;-79
2020/12/18 12:53:12;;;;;;;48.97;30.70;;;;;;;7.76;70.94;99944.66;2263067;79;21565;-78
2020/12/18 12:56:13;;;;;;;42.97;28.50;;;;;;;7.75;70.92;99944.19;2261073;79;21247;-79
2020/12/18 12:59:14;;;;;;;53.30;30.80;;;;;;;7.75;70.95;99944.19;2260815;79;21148;-79
2020/12/18 13:02:15;;;;;;;40.57;25.00;;;;;;;7.79;70.85;99942.19;2259228;79;21630;-79
2020/12/18 13:05:16;;;;;;;43.27;26.40;;;;;;;7.79;70.54;99938.29;2262182;79;21279;-80
2020/12/18 13:08:17;;;;;;;41.90;27.33;;;;;;;7.74;70.79;99938.10;2262224;79;21527;-80
2020/12/18 13:11:19;;;;;;;50.23;28.17;;;;;;;7.74;70.67;99951.09;2262949;79;21657;-79
2020/12/18 13:14:24;;;;;;;40.77;26.17;;;;;;;7.74;70.62;99942.00;2260105;79;22081;-78
2020/12/18 13:17:25;;;;;;;49.83;29.93;;;;;;;7.74;70.58;99943.72;2261365;78;21137;-79
2020/12/18 13:20:27;;;;;;;51.80;29.23;;;;;;;7.70;70.75;99948.31;2263443;79;21288;-79
2020/12/18 13:23:28;;;;;;;45.43;30.03;;;;;;;7.72;70.88;99946.66;2261863;79;21288;-81
2020/12/18 13:26:29;;;;;;;42.03;27.63;;;;;;;7.73;70.94;99944.12;2264481;79;21288;-80
2020/12/18 13:29:31;;;;;;;51.87;27.03;;;;;;;7.72;70.87;99950.15;2264542;79;21322;-80
2020/12/18 13:32:32;;;;;;;37.43;25.37;;;;;;;7.75;70.71;99946.38;2263630;79;21235;-80
2020/12/18 13:35:34;;;;;;;47.80;27.93;;;;;;;7.70;70.63;99952.21;2264142;79;21271;-80
2020/12/18 13:38:37;;;;;;;49.37;30.07;;;;;;;7.66;70.88;99947.30;2264500;79;21392;-79
2020/12/18 13:41:38;;;;;;;43.00;29.77;;;;;;;7.66;70.97;99953.39;2264306;79;21260;-80
2020/12/18 13:44:39;;;;;;;43.07;28.57;;;;;;;7.58;70.95;99956.50;2263028;79;21280;-79
2020/12/18 13:47:40;;;;;;;41.33;28.40;;;;;;;7.54;71.09;99962.39;2263145;79;22073;-79
2020/12/18 13:50:42;;;;;;;41.60;27.00;;;;;;;7.46;71.25;99957.28;2264085;79;21256;-79
2020/12/18 13:53:43;;;;;;;41.73;25.30;;;;;;;7.41;71.33;99953.20;2263411;79;21256;-80
2020/12/18 13:56:44;;;;;;;48.67;27.57;;;;;;;7.37;71.49;99957.79;2264563;79;21256;-78
2020/12/18 13:59:45;;;;;;;42.87;28.40;;;;;;;7.32;71.58;99955.41;2264865;79;21562;-80
2020/12/18 14:02:47;;;;;;;58.00;30.20;;;;;;;7.30;71.64;99962.25;2263969;79;21133;-79